Aeroporto :
LOGIN :

Iscrizione | Disclaimer

   EN    FR    IT 

 










Sommario :    VFR   VFR Marginale   IFR   IFR Intensivo   IFR Molto Intensivo
Visibilità : 
Base nubi : 
>= 8 km
>= 3000ft
5 / 8 km
1000 / 3000 ft
1500m / 5 km
500 / 1000 ft
800 / 1500m
200 / 500 ft
< 800m
< 200 ft
Simboli :   Temporali  Nebbia  Neve Forte  Precipitazioni Forti  Vento > 20 kt
SIGMETs :   Varie  Temporali  Ghiacco  Turbolenza  Onda orograficha  Ceneri Vulcaniche






- Altitudine del aeroporto : 294 ft
- Codice IATA : NAP


LIRN - Naples Capodichino

ULTIMO METAR :
  • 220920Z 17005KT 130V230 8000 FEW030 27/20 Q1014 NOSIG

METARs OBSOLETI :
  • 220850Z 19006KT 120V230 8000 FEW030 27/21 Q1014 NOSIG
  • 220820Z 20006KT 140V230 8000 FEW020 SCT040 26/21 Q1014 NOSIG
  • 220750Z 21006KT 150V240 8000 FEW020 BKN040 26/21 Q1014 NOSIG
  • 220720Z 19005KT 150V240 7000 FEW020 SCT040 26/22 Q1013 NOSIG
  • 220650Z 19005KT 150V220 7000 FEW020 SCT040 25/22 Q1013 NOSIG
  • 220620Z 19004KT 150V230 7000 FEW020 SCT040 25/21 Q1013 NOSIG
  • 220550Z VRB02KT 7000 FEW015 SCT030 25/21 Q1013 NOSIG
  • 220520Z VRB01KT 7000 NSC 24/21 Q1013 NOSIG
  • 220450Z VRB02KT CAVOK 24/22 Q1013 NOSIG

TAF TAF LIRN
Valido dal 22 a 06 ore il 23 a 06 ore UTC


220500Z 2206/2306 VRB05KT 9999 FEW020
BECMG 2207/2209 23010KT
BECMG 2218/2220 VRB05KT



MetMap, La meteo Aeronautica in un colpo d'occhio ! - Copyright ORBIFLY Dicembre 2007 - Disclaimer

ORBIFLY MET'MAP TEAM :

Programmazione e sviluppo : Alexandra Zaïnal
Concezione : Baudouin d'Aumeries
Supporto tecnico e logistico : Manuel Goepfert
Aiuto : Marc-Olivier Méhu
Aiuto per la traduzione : Arnaldo La Scala




FONTI E CREDITI :

   NOAA